Time;durP1;ratioP1;P1;durP2;ratioP2;P2;SDS_P1;SDS_P2;PMS_P1;PMS_P2;Temp;Humidity;BMP_temperature;BMP_pressure;BME280_temperature;BME280_humidity;BME280_pressure;Samples;Min_cycle;Max_cycle;Signal;HPM_P1;HPM_P2
2022/02/27 00:02:01;;;;;;;;;39.25;36.75;9.70;64.20;;;;;;4915788;29;8823;-67
2022/02/27 00:04:27;;;;;;;;;33.50;32.00;9.80;63.90;;;;;;4916649;29;8778;-69
2022/02/27 00:06:52;;;;;;;;;37.75;36.25;9.50;64.40;;;;;;4916796;29;9537;-69
2022/02/27 00:09:18;;;;;;;;;38.25;36.00;9.20;65.80;;;;;;4916306;29;8878;-70
2022/02/27 00:11:44;;;;;;;;;38.00;36.50;9.30;66.40;;;;;;4916085;29;8804;-67
2022/02/27 00:14:10;;;;;;;;;39.25;37.50;9.10;67.70;;;;;;4915552;29;8811;-71
2022/02/27 00:16:36;;;;;;;;;36.25;35.50;9.30;67.10;;;;;;4916042;29;8874;-69
2022/02/27 00:19:02;;;;;;;;;46.00;39.25;9.30;66.50;;;;;;4916163;29;8788;-67
2022/02/27 00:21:28;;;;;;;;;39.25;38.00;8.90;69.40;;;;;;4915809;29;8777;-67
2022/02/27 00:23:53;;;;;;;;;41.00;36.00;8.80;70.90;;;;;;4915763;29;8803;-69
2022/02/27 00:26:19;;;;;;;;;41.75;35.25;8.70;72.90;;;;;;4915961;29;8805;-68
2022/02/27 00:28:45;;;;;;;;;34.75;33.50;8.80;72.10;;;;;;4915121;29;8790;-67
2022/02/27 00:31:11;;;;;;;;;42.25;39.00;8.90;71.20;;;;;;4916237;29;8776;-67
2022/02/27 00:33:36;;;;;;;;;39.50;37.00;9.00;71.40;;;;;;4919551;29;9449;-68
2022/02/27 00:36:02;;;;;;;;;40.25;38.25;8.90;71.20;;;;;;4920425;29;8808;-69
2022/02/27 00:38:28;;;;;;;;;46.00;41.00;8.90;71.00;;;;;;4918595;29;8909;-68
2022/02/27 00:40:54;;;;;;;;;44.25;37.75;8.80;71.80;;;;;;4919336;29;9315;-68
2022/02/27 00:43:20;;;;;;;;;44.50;41.00;8.70;74.30;;;;;;4919680;29;8810;-69
2022/02/27 00:45:46;;;;;;;;;38.75;36.25;8.80;73.20;;;;;;4918366;29;8900;-72
2022/02/27 00:48:11;;;;;;;;;41.25;37.25;8.90;72.40;;;;;;4907866;29;9376;-69
2022/02/27 00:50:37;;;;;;;;;46.00;39.50;9.20;70.60;;;;;;4919938;29;8776;-70
2022/02/27 00:53:03;;;;;;;;;45.75;38.75;9.10;71.30;;;;;;4919547;29;8807;-71
2022/02/27 00:55:29;;;;;;;;;38.25;36.00;9.00;72.80;;;;;;4919228;29;8798;-68
2022/02/27 00:57:56;;;;;;;;;41.75;39.75;9.50;69.30;;;;;;4919519;29;8802;-67
2022/02/27 01:00:21;;;;;;;;;42.00;38.75;9.00;72.00;;;;;;4919504;29;8885;-69
2022/02/27 01:02:47;;;;;;;;;42.50;39.50;8.80;75.20;;;;;;4919287;29;8940;-69
2022/02/27 01:05:13;;;;;;;;;41.50;39.00;8.70;76.10;;;;;;4919019;29;8784;-68
2022/02/27 01:07:38;;;;;;;;;41.75;37.75;8.80;75.80;;;;;;4919226;29;8805;-71
2022/02/27 01:10:05;;;;;;;;;47.00;42.25;8.90;75.20;;;;;;4919556;29;8807;-69
2022/02/27 01:12:31;;;;;;;;;50.50;42.00;8.80;76.00;;;;;;4916576;29;8773;-68
2022/02/27 01:14:57;;;;;;;;;35.25;34.75;8.80;75.70;;;;;;4919241;29;8880;-71
2022/02/27 01:17:22;;;;;;;;;51.00;40.00;8.70;77.40;;;;;;4919192;29;8770;-71
2022/02/27 01:19:49;;;;;;;;;46.00;42.25;8.90;77.00;;;;;;4919298;29;8853;-69
2022/02/27 01:22:15;;;;;;;;;52.75;44.00;8.90;75.80;;;;;;4919050;29;8847;-69
2022/02/27 01:24:41;;;;;;;;;40.00;38.00;9.20;75.00;;;;;;4919028;29;8778;-68
2022/02/27 01:27:07;;;;;;;;;50.75;41.75;9.50;73.70;;;;;;4918871;29;8920;-68
2022/02/27 01:29:33;;;;;;;;;58.25;44.25;9.60;72.20;;;;;;4918938;29;8799;-68
2022/02/27 01:31:59;;;;;;;;;49.00;42.75;9.30;74.00;;;;;;4918968;29;8828;-69
2022/02/27 01:34:25;;;;;;;;;43.75;39.50;9.10;75.30;;;;;;4918608;29;8918;-69
2022/02/27 01:36:51;;;;;;;;;44.75;39.75;8.80;77.30;;;;;;4918774;29;8797;-69
2022/02/27 01:39:16;;;;;;;;;53.50;43.25;8.90;77.50;;;;;;4918903;29;8786;-67
2022/02/27 01:41:42;;;;;;;;;58.75;46.25;8.80;79.20;;;;;;4918668;29;8776;-69
2022/02/27 01:44:08;;;;;;;;;58.50;47.00;8.60;82.40;;;;;;4917651;29;8800;-70
2022/02/27 01:46:35;;;;;;;;;51.75;40.50;8.50;85.30;;;;;;4918650;29;8774;-69
2022/02/27 01:49:01;;;;;;;;;58.00;48.00;8.90;80.10;;;;;;4918575;29;8780;-70
2022/02/27 01:51:27;;;;;;;;;59.75;49.50;8.70;82.60;;;;;;4918499;29;8950;-70
2022/02/27 01:53:53;;;;;;;;;52.50;42.25;8.90;82.40;;;;;;4918504;29;8896;-67
2022/02/27 01:56:19;;;;;;;;;54.25;46.50;8.70;81.20;;;;;;4918640;29;8816;-68
2022/02/27 01:58:45;;;;;;;;;59.75;46.00;8.70;84.90;;;;;;4918770;29;8785;-69
2022/02/27 02:01:11;;;;;;;;;54.75;45.00;8.90;80.80;;;;;;4915745;29;8810;-67
2022/02/27 02:03:37;;;;;;;;;56.25;47.25;8.60;84.40;;;;;;4918556;29;8825;-67
2022/02/27 02:06:03;;;;;;;;;55.75;47.50;8.50;88.50;;;;;;4918466;29;9414;-68
2022/02/27 02:08:29;;;;;;;;;57.00;47.50;8.90;84.20;;;;;;4918137;29;9505;-70
2022/02/27 02:10:54;;;;;;;;;51.00;43.00;8.60;85.80;;;;;;4917932;29;8790;-69
2022/02/27 02:13:20;;;;;;;;;57.25;47.00;8.80;84.70;;;;;;4918779;29;8803;-69
2022/02/27 02:15:55;;;;;;;;;53.00;43.75;8.80;84.20;;;;;;4918573;29;8890;-72
2022/02/27 02:18:21;;;;;;;;;52.00;44.00;8.80;84.90;;;;;;4918465;29;8809;-68
2022/02/27 02:20:46;;;;;;;;;54.75;47.00;8.60;88.70;;;;;;4918205;29;8771;-67
2022/02/27 02:23:12;;;;;;;;;52.00;45.75;8.40;92.50;;;;;;4918529;29;8847;-68
2022/02/27 02:25:38;;;;;;;;;53.50;43.25;8.40;94.30;;;;;;4918403;29;8910;-68
2022/02/27 02:28:04;;;;;;;;;59.00;47.25;8.70;90.80;;;;;;4918301;29;8791;-68
2022/02/27 02:30:30;;;;;;;;;57.00;46.75;8.90;84.50;;;;;;4918107;29;8782;-70
2022/02/27 02:32:57;;;;;;;;;55.25;45.00;8.60;90.00;;;;;;4917968;29;8830;-69
2022/02/27 02:35:26;;;;;;;;;58.50;48.50;8.30;93.00;;;;;;4918249;29;8882;-68
2022/02/27 02:37:52;;;;;;;;;49.25;43.75;8.40;93.90;;;;;;4918141;29;9335;-67
2022/02/27 02:40:20;;;;;;;;;60.00;48.00;8.20;99.90;;;;;;4918044;29;8822;-69
2022/02/27 02:42:46;;;;;;;;;52.00;42.75;8.50;96.60;;;;;;4917890;29;8855;-69
2022/02/27 02:45:13;;;;;;;;;57.50;47.00;8.20;96.90;;;;;;4918035;29;8794;-67
2022/02/27 02:47:44;;;;;;;;;60.00;48.25;8.20;99.90;;;;;;4918168;29;8821;-69
2022/02/27 02:50:12;;;;;;;;;62.50;50.75;8.40;99.80;;;;;;4918174;29;8877;-68
2022/02/27 02:52:38;;;;;;;;;56.75;46.00;8.40;99.90;;;;;;4918093;29;8930;-70
2022/02/27 02:55:13;;;;;;;;;55.25;44.50;8.50;98.90;;;;;;4917629;29;8877;-68
2022/02/27 02:57:39;;;;;;;;;56.75;46.00;8.40;97.00;;;;;;4917727;29;8795;-70
2022/02/27 03:00:08;;;;;;;;;60.25;47.25;8.70;91.80;;;;;;4917965;29;8803;-67
2022/02/27 03:02:35;;;;;;;;;52.75;43.50;8.60;91.10;;;;;;4917854;29;9541;-69
2022/02/27 03:05:00;;;;;;;;;59.00;49.00;8.50;93.80;;;;;;4917729;29;8771;-68
2022/02/27 03:07:26;;;;;;;;;58.50;48.00;8.70;92.30;;;;;;4917689;29;8780;-68
2022/02/27 03:09:52;;;;;;;;;50.00;43.25;8.60;92.60;;;;;;4917568;29;8799;-68
2022/02/27 03:12:18;;;;;;;;;52.75;44.00;8.70;90.20;;;;;;4917860;29;8779;-69
2022/02/27 03:14:44;;;;;;;;;57.50;48.00;8.40;92.20;;;;;;4917697;29;8771;-67
2022/02/27 03:17:10;;;;;;;;;57.00;46.75;8.70;90.00;;;;;;4917546;29;8810;-68
2022/02/27 03:19:36;;;;;;;;;55.00;44.00;8.70;87.90;;;;;;4917400;29;8775;-69
2022/02/27 03:22:02;;;;;;;;;55.75;45.25;9.00;84.60;;;;;;4917400;29;8869;-69
2022/02/27 03:24:28;;;;;;;;;53.50;47.25;8.60;87.40;;;;;;4917366;29;8771;-68
2022/02/27 03:26:53;;;;;;;;;57.25;47.00;8.60;87.50;;;;;;4917602;29;8803;-69
2022/02/27 03:29:19;;;;;;;;;62.25;50.50;8.20;92.30;;;;;;4917312;29;8810;-68
2022/02/27 03:31:45;;;;;;;;;57.75;45.25;8.30;93.10;;;;;;4917405;29;8784;-68
2022/02/27 03:34:11;;;;;;;;;55.75;46.00;8.40;90.60;;;;;;4917254;29;8845;-69
2022/02/27 03:36:37;;;;;;;;;55.00;45.50;8.20;93.40;;;;;;4917507;29;9493;-67
2022/02/27 03:39:03;;;;;;;;;54.00;45.50;8.20;92.30;;;;;;4917651;29;8783;-67
2022/02/27 03:41:28;;;;;;;;;60.50;48.00;8.00;96.30;;;;;;4917438;29;9513;-68
2022/02/27 03:43:54;;;;;;;;;48.50;42.75;7.80;99.90;;;;;;4917593;29;8811;-69
2022/02/27 03:46:20;;;;;;;;;53.50;44.50;7.70;99.90;;;;;;4917133;29;8826;-69
2022/02/27 03:48:46;;;;;;;;;57.25;45.00;7.80;99.90;;;;;;4917123;29;8783;-69
2022/02/27 03:51:12;;;;;;;;;47.00;41.50;7.80;99.90;;;;;;4917092;29;8795;-71
2022/02/27 03:53:37;;;;;;;;;51.50;44.50;7.70;99.90;;;;;;4917446;29;8811;-69
2022/02/27 03:56:04;;;;;;;;;53.50;44.00;8.00;99.90;;;;;;4917310;29;8802;-71
2022/02/27 03:58:29;;;;;;;;;60.00;48.75;7.80;99.90;;;;;;4917294;29;8798;-67
2022/02/27 04:00:55;;;;;;;;;56.50;46.75;7.50;99.90;;;;;;4917302;29;8787;-70
2022/02/27 04:03:21;;;;;;;;;54.25;45.25;7.70;99.90;;;;;;4917246;29;8815;-69
2022/02/27 04:05:47;;;;;;;;;56.75;44.75;7.70;99.90;;;;;;4916994;29;9480;-69
2022/02/27 04:08:13;;;;;;;;;56.25;46.00;8.10;99.90;;;;;;4919969;29;8794;-69
2022/02/27 04:10:41;;;;;;;;;59.00;48.00;7.80;99.90;;;;;;4920729;29;8803;-70
2022/02/27 04:13:07;;;;;;;;;54.75;45.00;7.70;99.90;;;;;;4920965;29;8893;-70
2022/02/27 04:15:33;;;;;;;;;59.25;49.50;7.70;99.90;;;;;;4920724;29;8791;-69
2022/02/27 04:17:59;;;;;;;;;61.50;50.00;8.00;99.90;;;;;;4920648;29;8787;-69
2022/02/27 04:20:25;;;;;;;;;56.75;45.50;8.10;99.90;;;;;;4920564;29;8791;-69
2022/02/27 04:22:50;;;;;;;;;57.00;48.75;8.50;92.80;;;;;;4920601;29;8843;-68
2022/02/27 04:25:16;;;;;;;;;60.00;48.75;8.40;91.20;;;;;;4920766;29;8783;-69
2022/02/27 04:27:42;;;;;;;;;61.75;51.50;8.10;93.10;;;;;;4920646;29;8807;-68
2022/02/27 04:30:08;;;;;;;;;64.75;52.00;8.10;92.30;;;;;;4920409;29;8794;-69
2022/02/27 04:32:34;;;;;;;;;62.75;47.75;8.20;90.00;;;;;;4920273;29;8853;-68
2022/02/27 04:35:00;;;;;;;;;53.25;43.25;8.40;86.10;;;;;;4920434;29;8787;-69
2022/02/27 04:37:26;;;;;;;;;62.25;49.25;8.30;85.00;;;;;;4920800;29;8806;-68
2022/02/27 04:39:52;;;;;;;;;57.00;45.00;8.50;84.00;;;;;;4919694;29;8838;-70
2022/02/27 04:42:18;;;;;;;;;61.50;50.00;8.20;87.20;;;;;;4920442;29;8815;-68
2022/02/27 04:44:43;;;;;;;;;67.00;55.50;8.30;85.70;;;;;;4920103;29;8784;-67
2022/02/27 04:47:09;;;;;;;;;55.75;46.50;8.00;90.00;;;;;;4920109;29;8867;-70
2022/02/27 04:49:36;;;;;;;;;72.75;59.25;8.00;87.60;;;;;;4920009;29;8795;-68
2022/02/27 04:52:03;;;;;;;;;69.75;55.50;7.90;88.40;;;;;;4903593;29;8811;-68
2022/02/27 04:54:29;;;;;;;;;71.50;59.00;8.10;85.90;;;;;;4919958;29;8783;-68
2022/02/27 04:56:54;;;;;;;;;66.75;54.25;7.80;91.80;;;;;;4919954;29;8790;-67
2022/02/27 04:59:20;;;;;;;;;57.00;45.25;8.10;87.70;;;;;;4920136;29;8772;-68
2022/02/27 05:01:46;;;;;;;;;61.50;53.00;8.00;90.80;;;;;;4919166;29;8822;-68
2022/02/27 05:04:12;;;;;;;;;66.00;53.25;7.60;92.90;;;;;;4919903;29;8803;-69
2022/02/27 05:06:38;;;;;;;;;68.00;55.00;7.70;88.90;;;;;;4920014;29;8783;-69
2022/02/27 05:09:04;;;;;;;;;65.25;54.25;7.80;89.60;;;;;;4920012;29;9450;-68
2022/02/27 05:11:30;;;;;;;;;58.00;45.75;8.10;86.10;;;;;;4919744;29;8901;-70
2022/02/27 05:13:55;;;;;;;;;51.00;44.25;8.00;85.40;;;;;;4919476;29;8894;-68
2022/02/27 05:16:21;;;;;;;;;54.50;45.25;8.10;82.70;;;;;;4919616;29;8813;-70
2022/02/27 05:18:47;;;;;;;;;47.25;40.75;7.90;81.30;;;;;;4919380;29;8787;-67
2022/02/27 05:21:13;;;;;;;;;62.50;52.25;7.90;83.10;;;;;;4919536;29;8802;-68
2022/02/27 05:23:38;;;;;;;;;54.75;46.75;8.10;82.10;;;;;;4919202;29;8855;-69
2022/02/27 05:26:04;;;;;;;;;36.75;33.75;7.90;83.40;;;;;;4919531;29;8800;-67
2022/02/27 05:28:30;;;;;;;;;48.25;41.00;7.60;83.90;;;;;;4902956;29;8795;-68
2022/02/27 05:30:56;;;;;;;;;46.50;42.00;7.70;86.00;;;;;;4919314;29;8813;-68
2022/02/27 05:33:22;;;;;;;;;42.50;36.75;7.90;83.40;;;;;;4919254;29;8845;-68
2022/02/27 05:35:48;;;;;;;;;44.75;39.25;8.10;80.20;;;;;;4918963;29;8800;-69
2022/02/27 05:38:13;;;;;;;;;40.75;37.00;8.20;79.60;;;;;;4918814;29;8799;-68
2022/02/27 05:40:39;;;;;;;;;45.25;40.75;8.30;78.60;;;;;;4919446;29;8815;-68
2022/02/27 05:43:05;;;;;;;;;56.25;46.25;8.10;81.90;;;;;;4919316;29;9517;-68
2022/02/27 05:45:31;;;;;;;;;59.50;49.25;8.40;79.40;;;;;;4919063;29;8780;-68
2022/02/27 05:47:56;;;;;;;;;58.75;49.00;8.10;77.90;;;;;;4919010;29;8779;-68
2022/02/27 05:50:22;;;;;;;;;59.50;48.00;8.20;82.10;;;;;;4918997;29;8871;-68
2022/02/27 05:52:48;;;;;;;;;56.50;45.75;8.30;77.20;;;;;;4919217;29;8819;-68
2022/02/27 05:55:14;;;;;;;;;55.25;47.50;8.10;78.10;;;;;;4919269;29;8882;-69
2022/02/27 05:57:39;;;;;;;;;58.25;50.25;7.90;79.80;;;;;;4918868;29;8772;-69
2022/02/27 06:00:07;;;;;;;;;61.00;47.75;7.80;84.10;;;;;;4918874;29;8779;-67
2022/02/27 06:02:33;;;;;;;;;57.75;46.00;8.00;80.50;;;;;;4918896;29;8841;-68
2022/02/27 06:04:58;;;;;;;;;43.25;38.00;8.20;80.20;;;;;;4918779;29;8799;-68
2022/02/27 06:07:24;;;;;;;;;57.00;47.00;8.20;80.00;;;;;;4918761;29;8802;-68
2022/02/27 06:09:50;;;;;;;;;57.00;49.25;8.30;78.30;;;;;;4918686;29;8788;-67
2022/02/27 06:12:15;;;;;;;;;56.50;46.00;8.50;77.60;;;;;;4918512;29;8818;-68
2022/02/27 06:14:44;;;;;;;;;58.00;47.50;8.20;79.40;;;;;;4918833;29;8854;-68
2022/02/27 06:17:09;;;;;;;;;60.00;50.00;8.10;79.80;;;;;;4918556;29;8814;-69
2022/02/27 06:19:35;;;;;;;;;57.75;47.00;8.10;81.90;;;;;;4918678;29;8783;-70
2022/02/27 06:22:01;;;;;;;;;55.25;46.25;8.20;80.80;;;;;;4918398;29;8847;-68
2022/02/27 06:24:28;;;;;;;;;52.00;46.00;8.70;76.70;;;;;;4918394;29;8775;-71
2022/02/27 06:26:54;;;;;;;;;51.75;44.00;9.00;76.00;;;;;;4918488;29;8879;-66
2022/02/27 06:29:20;;;;;;;;;53.00;46.00;9.20;75.00;;;;;;4917868;29;8803;-68
2022/02/27 06:31:46;;;;;;;;;51.50;45.00;9.20;75.40;;;;;;4918263;29;8868;-70
2022/02/27 06:34:13;;;;;;;;;53.75;45.00;9.10;76.40;;;;;;4917415;29;8823;-68
2022/02/27 06:36:39;;;;;;;;;51.50;44.00;9.10;75.60;;;;;;4917347;29;8814;-68
2022/02/27 06:39:04;;;;;;;;;45.75;40.75;9.10;75.10;;;;;;4917279;29;9434;-68
2022/02/27 06:41:30;;;;;;;;;58.50;47.25;9.10;76.10;;;;;;4917273;29;8780;-68
2022/02/27 06:43:56;;;;;;;;;54.50;45.25;8.90;75.90;;;;;;4917196;29;8843;-71
2022/02/27 06:46:22;;;;;;;;;51.00;43.00;9.20;73.90;;;;;;4917094;29;8914;-68
2022/02/27 06:48:47;;;;;;;;;56.25;46.25;9.40;72.80;;;;;;4916889;29;8787;-72
2022/02/27 06:51:13;;;;;;;;;63.75;51.25;9.40;73.40;;;;;;4917292;29;8780;-73
2022/02/27 06:53:39;;;;;;;;;61.50;50.00;9.40;72.60;;;;;;4917884;29;8839;-71
2022/02/27 06:56:06;;;;;;;;;57.75;48.00;9.50;72.20;;;;;;4919820;29;8897;-70
2022/02/27 06:58:31;;;;;;;;;56.50;47.00;9.70;71.10;;;;;;4917291;29;8802;-72
2022/02/27 07:00:57;;;;;;;;;53.00;42.50;9.30;72.10;;;;;;4916984;29;8807;-74
2022/02/27 07:03:24;;;;;;;;;54.25;42.00;9.40;71.50;;;;;;4917174;29;8840;-68
2022/02/27 07:05:50;;;;;;;;;57.50;46.75;9.60;71.70;;;;;;4917479;29;8882;-71
2022/02/27 07:08:16;;;;;;;;;57.25;46.50;9.20;72.30;;;;;;4917857;29;9557;-69
2022/02/27 07:10:42;;;;;;;;;53.00;46.25;9.30;72.00;;;;;;4917143;29;8893;-70
2022/02/27 07:13:08;;;;;;;;;57.00;47.00;9.40;70.90;;;;;;4916918;29;8889;-70
2022/02/27 07:15:34;;;;;;;;;54.75;46.25;9.50;70.00;;;;;;4917059;29;8775;-71
2022/02/27 07:18:01;;;;;;;;;53.50;45.00;9.70;68.00;;;;;;4917140;29;8784;-69
2022/02/27 07:20:27;;;;;;;;;55.75;46.75;9.80;67.80;;;;;;4917163;29;8784;-70
2022/02/27 07:22:52;;;;;;;;;57.00;47.25;9.50;68.70;;;;;;4918390;29;8843;-71
2022/02/27 07:25:18;;;;;;;;;53.00;45.25;9.20;70.40;;;;;;4918076;29;8826;-69
2022/02/27 07:27:44;;;;;;;;;59.00;49.00;9.20;70.80;;;;;;4917726;29;8787;-69
2022/02/27 07:30:11;;;;;;;;;57.00;45.25;9.10;70.20;;;;;;4916921;29;8839;-73
2022/02/27 07:32:36;;;;;;;;;58.25;48.00;9.50;68.70;;;;;;4874281;29;1242872;-69
2022/02/27 07:35:03;;;;;;;;;71.75;57.50;9.80;66.70;;;;;;4917520;29;8887;-73
2022/02/27 07:37:30;;;;;;;;;60.25;51.50;9.50;67.90;;;;;;4917373;29;8819;-70
2022/02/27 07:39:56;;;;;;;;;59.75;47.00;10.10;65.00;;;;;;4917273;29;8787;-71
2022/02/27 07:42:22;;;;;;;;;69.25;54.00;10.10;63.50;;;;;;4916621;29;8799;-71
2022/02/27 07:44:47;;;;;;;;;47.25;41.25;9.80;65.60;;;;;;4917064;29;9431;-71
2022/02/27 07:47:13;;;;;;;;;63.25;50.75;9.40;65.90;;;;;;4917515;29;8825;-73
2022/02/27 07:49:39;;;;;;;;;59.25;49.75;8.90;68.50;;;;;;4917444;29;8905;-73
2022/02/27 07:52:05;;;;;;;;;62.25;52.00;8.70;67.90;;;;;;4917154;29;9542;-75
2022/02/27 07:54:31;;;;;;;;;65.25;53.25;8.90;68.70;;;;;;4917458;29;9449;-71
2022/02/27 07:56:57;;;;;;;;;57.00;46.25;8.80;68.20;;;;;;4917243;29;8775;-73
2022/02/27 07:59:22;;;;;;;;;53.25;45.25;8.80;66.10;;;;;;4917152;29;8830;-73
2022/02/27 08:01:48;;;;;;;;;54.00;45.50;9.10;65.50;;;;;;4900519;29;8794;-73
2022/02/27 08:04:15;;;;;;;;;59.00;50.00;9.20;65.40;;;;;;4917351;29;8795;-71
2022/02/27 08:06:41;;;;;;;;;58.75;47.75;9.30;63.70;;;;;;4917060;29;8805;-71
2022/02/27 08:09:07;;;;;;;;;58.00;48.50;9.10;64.90;;;;;;4917348;29;8807;-73
2022/02/27 08:11:32;;;;;;;;;57.25;48.75;9.20;64.10;;;;;;4917020;29;8795;-74
2022/02/27 08:13:59;;;;;;;;;48.75;41.25;9.20;65.10;;;;;;4917167;29;9204;-71
2022/02/27 08:16:25;;;;;;;;;60.25;49.25;9.00;64.40;;;;;;4917432;29;8772;-71
2022/02/27 08:18:51;;;;;;;;;56.75;46.50;9.10;66.00;;;;;;4916968;29;8783;-72
2022/02/27 08:21:17;;;;;;;;;56.00;47.25;9.40;64.30;;;;;;4917253;29;8795;-72
2022/02/27 08:23:43;;;;;;;;;58.25;49.25;9.20;64.20;;;;;;4917384;29;9490;-72
2022/02/27 08:26:09;;;;;;;;;62.25;52.75;9.40;63.70;;;;;;4917331;29;8803;-74
2022/02/27 08:28:34;;;;;;;;;63.50;50.50;9.30;63.70;;;;;;4916901;29;8817;-74
2022/02/27 08:31:01;;;;;;;;;63.50;53.00;9.40;63.90;;;;;;4916812;29;8898;-72
2022/02/27 08:33:27;;;;;;;;;58.75;49.25;9.50;64.10;;;;;;4916428;29;8821;-71
2022/02/27 08:35:55;;;;;;;;;34.00;32.00;9.80;61.50;;;;;;4916115;29;8776;-71
2022/02/27 08:38:21;;;;;;;;;37.25;32.75;9.60;61.30;;;;;;4914590;29;8793;-72
2022/02/27 08:40:49;;;;;;;;;41.50;37.75;9.70;62.30;;;;;;4915209;29;8925;-69
2022/02/27 08:43:15;;;;;;;;;44.50;39.25;9.50;61.60;;;;;;4914671;29;8813;-71
2022/02/27 08:45:41;;;;;;;;;48.50;41.25;9.90;62.70;;;;;;4915807;29;8862;-72
2022/02/27 08:48:07;;;;;;;;;40.25;36.50;9.90;62.30;;;;;;4915897;29;8798;-71
2022/02/27 08:50:33;;;;;;;;;38.75;36.00;10.00;61.70;;;;;;4915431;29;8781;-71
2022/02/27 08:52:59;;;;;;;;;41.00;37.25;9.90;61.00;;;;;;4917066;29;8911;-70
2022/02/27 08:55:25;;;;;;;;;47.25;41.25;9.90;62.20;;;;;;4919906;29;8776;-70
2022/02/27 08:57:51;;;;;;;;;36.75;34.00;9.70;63.20;;;;;;4920209;29;8918;-68
2022/02/27 09:00:18;;;;;;;;;38.25;33.75;9.80;62.30;;;;;;4920852;29;8797;-69
2022/02/27 09:02:45;;;;;;;;;37.25;36.25;9.60;62.20;;;;;;4919097;29;8829;-71
2022/02/27 09:05:11;;;;;;;;;40.75;37.25;9.90;61.70;;;;;;4917358;29;8801;-71
2022/02/27 09:07:37;;;;;;;;;44.25;37.75;10.00;61.80;;;;;;4919547;29;8775;-71
2022/02/27 09:10:05;;;;;;;;;48.50;40.50;10.20;60.70;;;;;;4919610;29;8830;-70
2022/02/27 09:12:31;;;;;;;;;53.75;43.75;9.90;61.30;;;;;;4919214;29;8801;-68
2022/02/27 09:14:57;;;;;;;;;45.50;40.25;10.00;62.20;;;;;;4916553;29;8791;-70
2022/02/27 09:17:23;;;;;;;;;33.75;32.75;10.00;62.10;;;;;;4918814;29;8783;-71
2022/02/27 09:19:49;;;;;;;;;57.00;45.25;10.20;59.30;;;;;;4917504;29;8818;-70
2022/02/27 09:22:15;;;;;;;;;39.50;38.00;10.30;59.10;;;;;;4918179;29;8833;-72
2022/02/27 09:24:41;;;;;;;;;43.25;38.00;10.10;58.60;;;;;;4919292;29;8996;-65
2022/02/27 09:27:07;;;;;;;;;39.75;37.75;10.20;58.10;;;;;;4917852;29;8902;-64
2022/02/27 09:29:33;;;;;;;;;44.50;39.50;9.90;59.40;;;;;;4916350;29;8788;-64
2022/02/27 09:31:59;;;;;;;;;45.00;38.00;10.00;61.20;;;;;;4918886;29;8815;-67
2022/02/27 09:34:25;;;;;;;;;45.75;40.50;10.20;60.50;;;;;;4917854;29;8910;-66
2022/02/27 09:36:52;;;;;;;;;52.25;42.25;9.90;62.10;;;;;;4919205;29;8804;-67
2022/02/27 09:39:17;;;;;;;;;48.75;41.00;10.10;60.80;;;;;;4919279;29;8866;-66
2022/02/27 09:41:45;;;;;;;;;59.75;46.75;10.40;60.50;;;;;;4919093;29;8771;-66
2022/02/27 09:44:10;;;;;;;;;50.25;41.00;10.40;58.90;;;;;;4919093;29;9586;-66
2022/02/27 09:46:37;;;;;;;;;63.75;52.25;10.30;58.60;;;;;;4919021;29;8779;-65
2022/02/27 09:49:04;;;;;;;;;65.25;54.25;10.90;58.20;;;;;;4919014;29;8779;-65
2022/02/27 09:51:30;;;;;;;;;58.25;48.25;10.80;58.20;;;;;;4918899;29;8807;-65
2022/02/27 09:53:56;;;;;;;;;66.50;52.50;10.60;57.70;;;;;;4919179;29;9383;-64
2022/02/27 09:56:22;;;;;;;;;47.25;40.50;11.20;56.00;;;;;;4918951;29;8798;-65
2022/02/27 09:58:47;;;;;;;;;50.00;41.25;11.10;56.10;;;;;;4917778;29;8901;-66
2022/02/27 10:01:15;;;;;;;;;30.75;30.75;11.20;54.60;;;;;;4918788;29;8926;-64
2022/02/27 10:03:41;;;;;;;;;34.50;30.25;10.80;53.90;;;;;;4916875;29;8902;-65
2022/02/27 10:06:11;;;;;;;;;31.00;29.25;11.00;53.80;;;;;;4917394;29;8780;-65
2022/02/27 10:08:46;;;;;;;;;34.25;31.00;11.10;54.80;;;;;;4918168;29;8907;-66
2022/02/27 10:11:17;;;;;;;;;37.75;34.00;11.60;52.80;;;;;;4918588;29;8798;-65
2022/02/27 10:13:46;;;;;;;;;42.00;35.25;11.40;53.60;;;;;;4918585;29;8805;-71
2022/02/27 10:16:13;;;;;;;;;46.25;38.00;11.80;53.10;;;;;;4918874;29;8793;-68
2022/02/27 10:18:50;;;;;;;;;39.75;36.00;12.20;51.50;;;;;;4918792;29;8805;-70
2022/02/27 10:21:37;;;;;;;;;35.75;33.25;12.40;50.90;;;;;;4919639;29;8787;-70
2022/02/27 10:24:06;;;;;;;;;32.50;28.00;11.70;51.10;;;;;;4918089;29;8934;-68
2022/02/27 10:26:35;;;;;;;;;36.50;34.00;11.50;51.00;;;;;;4917527;29;8784;-69
2022/02/27 10:29:20;;;;;;;;;42.75;37.25;11.50;50.80;;;;;;4915370;29;8817;-67
2022/02/27 10:31:48;;;;;;;;;38.75;35.75;11.40;51.30;;;;;;4916986;29;8791;-68
2022/02/27 10:34:22;;;;;;;;;44.50;38.00;11.50;51.00;;;;;;4917332;29;8842;-68
2022/02/27 10:36:53;;;;;;;;;40.00;33.50;11.20;51.90;;;;;;4917374;29;8809;-66
2022/02/27 10:39:33;;;;;;;;;36.25;34.50;11.00;53.30;;;;;;4915492;29;8822;-66
2022/02/27 10:42:17;;;;;;;;;37.00;33.25;11.80;50.00;;;;;;4915506;29;9503;-66
2022/02/27 10:45:05;;;;;;;;;45.00;37.75;12.10;49.90;;;;;;4912520;29;8806;-67
2022/02/27 10:47:34;;;;;;;;;47.00;38.75;12.20;49.40;;;;;;4913220;29;8806;-64
2022/02/27 10:50:09;;;;;;;;;44.50;39.00;11.90;49.60;;;;;;4916346;29;8786;-67
2022/02/27 10:52:35;;;;;;;;;45.75;38.25;11.70;50.20;;;;;;4917761;29;8822;-66
2022/02/27 10:55:08;;;;;;;;;28.75;28.50;12.00;50.00;;;;;;4917515;29;8890;-66
2022/02/27 10:57:40;;;;;;;;;34.75;33.75;12.10;47.70;;;;;;4917603;29;8775;-66
2022/02/27 11:00:18;;;;;;;;;40.25;36.00;11.80;48.60;;;;;;4916805;29;8786;-65
2022/02/27 11:02:46;;;;;;;;;24.25;22.00;11.50;49.20;;;;;;4915583;29;8818;-67
2022/02/27 11:05:14;;;;;;;;;24.00;23.25;11.50;48.60;;;;;;4917334;29;9462;-67
2022/02/27 11:07:42;;;;;;;;;30.75;29.25;11.10;49.50;;;;;;4917445;29;8790;-65
2022/02/27 11:10:14;;;;;;;;;29.00;27.25;11.00;49.20;;;;;;4917559;29;8760;-64
2022/02/27 11:12:40;;;;;;;;;26.50;25.75;11.10;49.50;;;;;;4915153;29;8784;-66
2022/02/27 11:15:12;;;;;;;;;29.25;27.50;11.40;49.50;;;;;;4916524;29;8802;-66
2022/02/27 11:17:39;;;;;;;;;33.50;32.50;11.40;49.70;;;;;;4914517;29;8760;-68
2022/02/27 11:20:07;;;;;;;;;27.75;27.75;12.40;47.40;;;;;;4915743;29;8791;-68
2022/02/27 11:22:33;;;;;;;;;24.75;24.75;12.40;45.50;;;;;;4915994;29;8908;-68
2022/02/27 11:25:00;;;;;;;;;35.25;32.00;12.40;45.30;;;;;;4916831;29;9488;-68
2022/02/27 11:27:28;;;;;;;;;31.50;31.00;12.30;45.30;;;;;;4916722;29;9417;-68
2022/02/27 11:29:58;;;;;;;;;33.75;30.00;12.30;46.40;;;;;;4916018;29;8860;-67
2022/02/27 11:32:25;;;;;;;;;32.25;27.25;13.40;44.80;;;;;;4916768;29;8824;-68
2022/02/27 11:34:51;;;;;;;;;26.25;21.50;13.50;44.40;;;;;;4916677;29;8992;-66
2022/02/27 11:37:47;;;;;;;;;24.67;22.00;12.90;43.10;;;;;;4916601;29;8774;-66
2022/02/27 11:40:30;;;;;;;;;29.00;25.75;12.80;43.00;;;;;;4916832;29;8774;-66
2022/02/27 11:43:02;;;;;;;;;33.50;31.00;13.10;43.50;;;;;;4916797;29;8814;-66
2022/02/27 11:45:54;;;;;;;;;29.25;26.75;13.80;41.70;;;;;;4916803;29;8834;-66
2022/02/27 11:48:58;;;;;;;;;33.75;31.75;13.60;42.10;;;;;;4916787;29;8796;-72
2022/02/27 11:51:41;;;;;;;;;34.50;31.00;13.60;40.40;;;;;;4916595;29;8802;-72
2022/02/27 11:54:14;;;;;;;;;26.25;25.75;12.80;41.30;;;;;;4915722;29;8776;-71
2022/02/27 11:56:46;;;;;;;;;31.25;29.50;12.70;43.70;;;;;;4914633;29;8891;-71
2022/02/27 11:59:13;;;;;;;;;28.00;28.00;12.40;43.60;;;;;;4916537;29;8799;-71
2022/02/27 12:01:48;;;;;;;;;33.50;32.00;12.40;44.60;;;;;;4916749;29;8814;-67
2022/02/27 12:04:31;;;;;;;;;31.00;29.75;12.60;44.10;;;;;;4916550;29;8830;-72
2022/02/27 12:07:09;;;;;;;;;30.25;29.50;12.30;44.70;;;;;;4914542;29;8781;-69
2022/02/27 12:09:50;;;;;;;;;23.25;20.00;12.00;45.00;;;;;;4916518;29;9530;-71
2022/02/27 12:12:52;;;;;;;;;27.50;26.25;11.80;44.60;;;;;;4914270;29;8801;-69
2022/02/27 12:15:21;;;;;;;;;29.00;29.00;11.60;45.90;;;;;;4848404;29;8828;-70
2022/02/27 12:17:52;;;;;;;;;42.00;36.00;11.80;45.50;;;;;;4848580;29;8786;-65
2022/02/27 12:20:55;;;;;;;;;31.75;29.00;12.60;45.00;;;;;;4848423;29;8838;-67
2022/02/27 12:23:35;;;;;;;;;39.75;34.00;14.00;41.30;;;;;;4846641;29;8856;-67
2022/02/27 12:26:23;;;;;;;;;27.75;27.25;14.20;39.90;;;;;;4840848;29;8812;-65
2022/02/27 12:28:55;;;;;;;;;26.00;25.00;14.00;40.50;;;;;;4841971;29;8838;-67
2022/02/27 12:31:32;;;;;;;;;21.33;21.33;13.40;40.10;;;;;;4844529;29;9540;-69
2022/02/27 12:34:10;;;;;;;;;24.75;24.75;13.10;41.40;;;;;;4830001;29;8834;-68
2022/02/27 12:36:36;;;;;;;;;27.25;27.25;12.50;42.30;;;;;;4826172;29;8802;-68
2022/02/27 12:39:09;;;;;;;;;29.25;26.00;12.60;44.00;;;;;;4826027;29;8864;-67
2022/02/27 12:41:41;;;;;;;;;23.25;23.25;12.50;42.30;;;;;;4826158;29;8794;-67
2022/02/27 12:44:09;;;;;;;;;30.00;27.25;12.50;42.60;;;;;;4826031;29;8818;-68
2022/02/27 12:46:35;;;;;;;;;29.25;29.00;12.50;42.30;;;;;;4825954;29;8812;-67